createdAt,value
2018-05-29T00:00:24.551Z,999.91
2018-05-29T00:01:05.053Z,999.91
2018-05-29T00:01:45.505Z,999.87
2018-05-29T00:02:26.049Z,999.89
2018-05-29T00:03:06.534Z,999.87
2018-05-29T00:03:46.986Z,999.87
2018-05-29T00:04:27.477Z,999.85
2018-05-29T00:05:08.009Z,999.85
2018-05-29T00:05:48.503Z,999.82
2018-05-29T00:06:28.993Z,999.8
2018-05-29T00:07:09.460Z,999.77
2018-05-29T00:07:49.996Z,999.77
2018-05-29T00:08:30.524Z,999.84
2018-05-29T00:09:11.023Z,999.83
2018-05-29T00:09:55.367Z,999.78
2018-05-29T00:10:35.882Z,999.75
2018-05-29T00:11:16.345Z,999.75
2018-05-29T00:11:56.878Z,999.75
2018-05-29T00:12:37.396Z,999.74
2018-05-29T00:13:17.902Z,999.72
2018-05-29T00:13:58.403Z,999.74
2018-05-29T00:14:38.889Z,999.78
2018-05-29T00:15:19.444Z,999.76
2018-05-29T00:15:59.925Z,999.71
2018-05-29T00:16:40.435Z,999.76
2018-05-29T00:17:20.924Z,999.76
2018-05-29T00:18:01.468Z,999.77
2018-05-29T00:18:41.965Z,999.73
2018-05-29T00:19:22.426Z,999.75
2018-05-29T00:20:02.965Z,999.76
2018-05-29T00:20:43.468Z,999.71
2018-05-29T00:21:23.933Z,999.74
2018-05-29T00:22:04.411Z,999.78
2018-05-29T00:22:44.919Z,999.73
2018-05-29T00:23:25.410Z,999.68
2018-05-29T00:24:05.949Z,999.73
2018-05-29T00:24:46.476Z,999.68
2018-05-29T00:25:26.959Z,999.66
2018-05-29T00:26:07.420Z,999.69
2018-05-29T00:26:47.884Z,999.7
2018-05-29T00:27:28.375Z,999.72
2018-05-29T00:28:08.898Z,999.71
2018-05-29T00:28:49.391Z,999.75
2018-05-29T00:29:29.860Z,999.69
2018-05-29T00:30:10.392Z,999.71
2018-05-29T00:30:50.919Z,999.69
2018-05-29T00:31:31.422Z,999.68
2018-05-29T00:32:11.896Z,999.71
2018-05-29T00:32:52.405Z,999.68
2018-05-29T00:33:32.912Z,999.7
2018-05-29T00:34:13.385Z,999.67
2018-05-29T00:34:53.929Z,999.68
2018-05-29T00:35:34.425Z,999.62
2018-05-29T00:36:14.932Z,999.63
2018-05-29T00:36:55.449Z,999.65
2018-05-29T00:37:35.937Z,999.67
2018-05-29T00:38:16.394Z,999.72
2018-05-29T00:38:56.915Z,999.71
2018-05-29T00:39:37.381Z,999.7
2018-05-29T00:40:17.926Z,999.7
2018-05-29T00:40:58.383Z,999.77
2018-05-29T00:41:38.928Z,999.76
2018-05-29T00:42:19.423Z,999.81
2018-05-29T00:42:59.906Z,999.91
2018-05-29T00:43:40.382Z,1000.01
2018-05-29T00:44:20.962Z,1000.11
2018-05-29T00:45:01.365Z,1000.16
2018-05-29T00:45:41.872Z,1000.13
2018-05-29T00:46:22.339Z,1000.16
2018-05-29T00:47:02.861Z,1000.16
2018-05-29T00:47:43.362Z,1000.21
2018-05-29T00:48:23.875Z,1000.11
2018-05-29T00:49:04.357Z,1000.15
2018-05-29T00:49:44.835Z,1000.13
2018-05-29T00:50:25.368Z,1000.1
2018-05-29T00:51:05.809Z,1000.08
2018-05-29T00:51:46.342Z,1000.07
2018-05-29T00:52:26.817Z,1000.09
2018-05-29T00:53:07.386Z,1000.12
2018-05-29T00:53:47.841Z,1000.14
2018-05-29T00:54:28.460Z,1000.16
2018-05-29T00:55:08.898Z,1000.22
2018-05-29T00:55:49.388Z,1000.25
2018-05-29T00:56:29.858Z,1000.32
2018-05-29T00:57:10.342Z,1000.32
2018-05-29T00:57:50.866Z,1000.33
2018-05-29T00:58:31.359Z,1000.39
2018-05-29T00:59:11.842Z,1000.36
2018-05-29T00:59:52.309Z,1000.39
2018-05-29T01:00:32.819Z,1000.37
2018-05-29T01:01:13.264Z,1000.32
2018-05-29T01:01:53.769Z,1000.3
2018-05-29T01:02:34.251Z,1000.27
2018-05-29T01:03:14.821Z,1000.27
2018-05-29T01:03:55.371Z,1000.3
2018-05-29T01:04:35.899Z,1000.28
2018-05-29T01:05:16.357Z,1000.29
2018-05-29T01:05:56.866Z,1000.29
2018-05-29T01:06:37.455Z,1000.29
2018-05-29T01:07:17.975Z,1000.29
2018-05-29T01:07:58.473Z,1000.33
2018-05-29T01:08:38.961Z,1000.37
2018-05-29T01:09:19.407Z,1000.39
2018-05-29T01:09:59.931Z,1000.4
2018-05-29T01:10:40.459Z,1000.39
2018-05-29T01:11:20.927Z,1000.37
2018-05-29T01:12:01.406Z,1000.38
2018-05-29T01:12:41.992Z,1000.35
2018-05-29T01:13:22.440Z,1000.37
2018-05-29T01:14:02.937Z,1000.4
2018-05-29T01:14:43.404Z,1000.38
2018-05-29T01:15:23.925Z,1000.4
2018-05-29T01:16:04.439Z,1000.36
2018-05-29T01:16:44.926Z,1000.39
2018-05-29T01:17:25.376Z,1000.39
2018-05-29T01:18:05.893Z,1000.42
2018-05-29T01:18:46.366Z,1000.41
2018-05-29T01:19:26.900Z,1000.48
2018-05-29T01:20:07.369Z,1000.43
2018-05-29T01:20:47.857Z,1000.44
2018-05-29T01:21:28.429Z,1000.47
2018-05-29T01:22:08.843Z,1000.47
2018-05-29T01:22:49.363Z,1000.47
2018-05-29T01:23:29.844Z,1000.45
2018-05-29T01:24:10.329Z,1000.45
2018-05-29T01:24:50.839Z,1000.44
2018-05-29T01:25:31.305Z,1000.46
2018-05-29T01:26:11.845Z,1000.45
2018-05-29T01:26:52.325Z,1000.47
2018-05-29T01:27:32.819Z,1000.42
2018-05-29T01:28:13.294Z,1000.46
2018-05-29T01:28:53.833Z,1000.38
2018-05-29T01:29:34.336Z,1000.43
2018-05-29T01:30:14.786Z,1000.47
2018-05-29T01:30:55.350Z,1000.44
2018-05-29T01:31:35.789Z,1000.44
2018-05-29T01:32:16.302Z,1000.46
2018-05-29T01:32:56.781Z,1000.46
2018-05-29T01:33:37.242Z,1000.41
2018-05-29T01:34:17.790Z,1000.39
2018-05-29T01:34:58.253Z,1000.48
2018-05-29T01:35:38.758Z,1000.51
2018-05-29T01:36:19.283Z,1000.52
2018-05-29T01:36:59.797Z,1000.51
2018-05-29T01:37:40.297Z,1000.49
2018-05-29T01:38:20.756Z,1000.5
2018-05-29T01:39:01.300Z,1000.51
2018-05-29T01:39:41.808Z,1000.54
2018-05-29T01:40:22.766Z,1000.52
2018-05-29T01:41:03.254Z,1000.51
2018-05-29T01:41:43.747Z,1000.52
2018-05-29T01:42:24.255Z,1000.54
2018-05-29T01:43:04.770Z,1000.56
2018-05-29T01:43:45.229Z,1000.59
2018-05-29T01:44:25.723Z,1000.59
2018-05-29T01:45:06.207Z,1000.56
2018-05-29T01:45:46.719Z,1000.57
2018-05-29T01:46:27.205Z,1000.56
2018-05-29T01:47:07.676Z,1000.56
2018-05-29T01:47:48.156Z,1000.53
2018-05-29T01:48:28.714Z,1000.51
2018-05-29T01:49:09.163Z,1000.54
2018-05-29T01:49:49.652Z,1000.55
2018-05-29T01:50:30.187Z,1000.55
2018-05-29T01:51:10.598Z,1000.53
2018-05-29T01:51:51.103Z,1000.57
2018-05-29T01:52:31.635Z,1000.57
2018-05-29T01:53:12.154Z,1000.54
2018-05-29T01:53:52.629Z,1000.62
2018-05-29T01:54:33.094Z,1000.59
2018-05-29T01:55:13.610Z,1000.61
2018-05-29T01:55:54.089Z,1000.63
2018-05-29T01:56:34.595Z,1000.6
2018-05-29T01:57:15.104Z,1000.61
2018-05-29T01:57:55.588Z,1000.58
2018-05-29T01:58:36.007Z,1000.6
2018-05-29T01:59:16.544Z,1000.55
2018-05-29T01:59:57.011Z,1000.58
2018-05-29T02:00:37.502Z,1000.58
2018-05-29T02:01:18.033Z,1000.61
2018-05-29T02:01:58.548Z,1000.61
2018-05-29T02:02:38.979Z,1000.56
2018-05-29T02:03:19.485Z,1000.55
2018-05-29T02:04:00.023Z,1000.52
2018-05-29T02:04:40.492Z,1000.53
2018-05-29T02:05:21.056Z,1000.53
2018-05-29T02:06:01.523Z,1000.53
2018-05-29T02:06:42.009Z,1000.56
2018-05-29T02:07:22.517Z,1000.56
2018-05-29T02:08:03.004Z,1000.54
2018-05-29T02:08:43.529Z,1000.56
2018-05-29T02:09:24.016Z,1000.55
2018-05-29T02:10:04.494Z,1000.53
2018-05-29T02:10:45.082Z,1000.54
2018-05-29T02:11:25.562Z,1000.59
2018-05-29T02:12:06.072Z,1000.57
2018-05-29T02:12:46.519Z,1000.58
2018-05-29T02:13:27.029Z,1000.6
2018-05-29T02:14:07.504Z,1000.59
2018-05-29T02:14:48.587Z,1000.57
2018-05-29T02:15:29.058Z,1000.61
2018-05-29T02:16:09.643Z,1000.62
2018-05-29T02:16:50.151Z,1000.62
2018-05-29T02:17:30.557Z,1000.59
2018-05-29T02:18:11.061Z,1000.64
2018-05-29T02:18:51.596Z,1000.6
2018-05-29T02:19:32.079Z,1000.61
2018-05-29T02:20:12.536Z,1000.64
2018-05-29T02:20:53.356Z,1000.64
2018-05-29T02:21:33.910Z,1000.63
2018-05-29T02:22:14.455Z,1000.64
2018-05-29T02:22:54.906Z,1000.66
2018-05-29T02:23:35.396Z,1000.61
2018-05-29T02:24:15.838Z,1000.67
2018-05-29T02:24:56.371Z,1000.6
2018-05-29T02:25:36.866Z,1000.66
2018-05-29T02:26:17.368Z,1000.66
2018-05-29T02:26:57.852Z,1000.64
2018-05-29T02:27:38.398Z,1000.69
2018-05-29T02:28:18.847Z,1000.65
2018-05-29T02:28:59.402Z,1000.68
2018-05-29T02:29:39.918Z,1000.65
2018-05-29T02:30:20.394Z,1000.68
2018-05-29T02:31:00.903Z,1000.7
2018-05-29T02:31:41.383Z,1000.69
2018-05-29T02:32:21.831Z,1000.72
2018-05-29T02:33:02.339Z,1000.7
2018-05-29T02:33:42.837Z,1000.74
2018-05-29T02:34:23.313Z,1000.75
2018-05-29T02:35:07.479Z,1000.71
2018-05-29T02:35:48.023Z,1000.76
2018-05-29T02:36:28.446Z,1000.78
2018-05-29T02:37:09.010Z,1000.79
2018-05-29T02:37:49.477Z,1000.77
2018-05-29T02:38:30.031Z,1000.83
2018-05-29T02:39:10.501Z,1000.81
2018-05-29T02:39:50.995Z,1000.78
2018-05-29T02:40:31.481Z,1000.77
2018-05-29T02:41:11.955Z,1000.77
2018-05-29T02:41:52.463Z,1000.77
2018-05-29T02:42:32.956Z,1000.81
2018-05-29T02:43:13.467Z,1000.79
2018-05-29T02:43:53.968Z,1000.8
2018-05-29T02:44:34.498Z,1000.78
2018-05-29T02:45:14.987Z,1000.76
2018-05-29T02:45:55.511Z,1000.78
2018-05-29T02:46:35.983Z,1000.74
2018-05-29T02:47:16.448Z,1000.73
2018-05-29T02:47:56.958Z,1000.74
2018-05-29T02:48:37.460Z,1000.74
2018-05-29T02:49:17.931Z,1000.74
2018-05-29T02:49:58.375Z,1000.72
2018-05-29T02:50:38.927Z,1000.7
2018-05-29T02:51:19.409Z,1000.68
2018-05-29T02:51:59.922Z,1000.71
2018-05-29T02:52:40.368Z,1000.72
2018-05-29T02:53:20.923Z,1000.68
2018-05-29T02:54:01.382Z,1000.72
2018-05-29T02:54:41.895Z,1000.73
2018-05-29T02:55:22.367Z,1000.74
2018-05-29T02:56:02.871Z,1000.72
2018-05-29T02:56:43.370Z,1000.76
2018-05-29T02:57:23.834Z,1000.77
2018-05-29T02:58:04.340Z,1000.78
2018-05-29T02:58:44.818Z,1000.79
2018-05-29T02:59:25.287Z,1000.78
2018-05-29T03:00:05.790Z,1000.81
2018-05-29T03:00:46.377Z,1000.79
2018-05-29T03:01:26.883Z,1000.77
2018-05-29T03:02:07.370Z,1000.82
2018-05-29T03:02:47.835Z,1000.8
2018-05-29T03:03:28.802Z,1000.76
2018-05-29T03:04:09.324Z,1000.75
2018-05-29T03:04:49.810Z,1000.82
2018-05-29T03:05:30.302Z,1000.78
2018-05-29T03:06:10.811Z,1000.79
2018-05-29T03:06:51.330Z,1000.75
2018-05-29T03:07:31.849Z,1000.77
2018-05-29T03:08:12.298Z,1000.78
2018-05-29T03:08:52.803Z,1000.77
2018-05-29T03:09:33.300Z,1000.79
2018-05-29T03:10:13.844Z,1000.75
2018-05-29T03:10:54.315Z,1000.74
2018-05-29T03:11:34.801Z,1000.76
2018-05-29T03:12:15.308Z,1000.76
2018-05-29T03:12:55.791Z,1000.79
2018-05-29T03:13:36.398Z,1000.77
2018-05-29T03:14:16.889Z,1000.8
2018-05-29T03:14:57.402Z,1000.78
2018-05-29T03:15:37.914Z,1000.84
2018-05-29T03:16:18.402Z,1000.86
2018-05-29T03:16:58.897Z,1000.86
2018-05-29T03:17:39.413Z,1000.85
2018-05-29T03:18:19.881Z,1000.89
2018-05-29T03:19:00.421Z,1000.91
2018-05-29T03:19:40.911Z,1000.91
2018-05-29T03:20:21.406Z,1000.95
2018-05-29T03:21:01.959Z,1000.96
2018-05-29T03:21:42.412Z,1000.94
2018-05-29T03:22:22.896Z,1000.98
2018-05-29T03:23:03.630Z,1000.95
2018-05-29T03:23:44.083Z,1000.97
2018-05-29T03:24:24.590Z,1000.96
2018-05-29T03:25:05.088Z,1000.88
2018-05-29T03:25:45.544Z,1000.98
2018-05-29T03:26:26.092Z,1000.92
2018-05-29T03:27:06.553Z,1000.94
2018-05-29T03:27:47.016Z,1000.96
2018-05-29T03:28:27.536Z,1000.94
2018-05-29T03:29:07.986Z,1000.99
2018-05-29T03:29:48.563Z,1000.98
2018-05-29T03:30:28.988Z,1000.98
2018-05-29T03:31:09.466Z,1000.97
2018-05-29T03:31:49.980Z,1000.97
2018-05-29T03:32:30.495Z,1000.96
2018-05-29T03:33:10.964Z,1000.94
2018-05-29T03:33:51.492Z,1000.95
2018-05-29T03:34:31.974Z,1000.96
2018-05-29T03:35:12.467Z,1000.95
2018-05-29T03:35:53.014Z,1000.97
2018-05-29T03:36:33.756Z,1000.97
2018-05-29T03:37:14.143Z,1000.93
2018-05-29T03:37:54.670Z,1000.95
2018-05-29T03:38:35.195Z,1000.98
2018-05-29T03:39:15.663Z,1001.01
2018-05-29T03:39:56.131Z,1001.02
2018-05-29T03:40:36.634Z,1001.02
2018-05-29T03:41:17.126Z,1001.05
2018-05-29T03:41:57.637Z,1001.03
2018-05-29T03:42:38.137Z,1001.06
2018-05-29T03:43:18.631Z,1001.07
2018-05-29T03:43:59.107Z,1001.08
2018-05-29T03:44:39.607Z,1001.08
2018-05-29T03:45:20.078Z,1001.08
2018-05-29T03:46:00.591Z,1001.09
2018-05-29T03:46:41.108Z,1001.12
2018-05-29T03:47:21.570Z,1001.14
2018-05-29T03:48:02.059Z,1001.08
2018-05-29T03:48:42.513Z,1001.16
2018-05-29T03:49:23.200Z,1001.12
2018-05-29T03:50:03.709Z,1001.12
2018-05-29T03:50:44.203Z,1001.1
2018-05-29T03:51:24.645Z,1001.15
2018-05-29T03:52:05.147Z,1001.12
2018-05-29T03:52:45.617Z,1001.15
2018-05-29T03:53:26.149Z,1001.16
2018-05-29T03:54:06.635Z,1001.19
2018-05-29T03:54:47.171Z,1001.2
2018-05-29T03:55:27.620Z,1001.2
2018-05-29T03:56:08.137Z,1001.25
2018-05-29T03:56:48.602Z,1001.25
2018-05-29T03:57:30.136Z,1001.25
2018-05-29T03:58:10.619Z,1001.21
2018-05-29T03:58:51.111Z,1001.3
2018-05-29T03:59:31.594Z,1001.24
2018-05-29T04:00:12.088Z,1001.24
2018-05-29T04:00:52.597Z,1001.25
2018-05-29T04:01:33.119Z,1001.19
2018-05-29T04:02:13.580Z,1001.2
2018-05-29T04:02:54.130Z,1001.22
2018-05-29T04:03:34.856Z,1001.17
2018-05-29T04:04:15.296Z,1001.22
2018-05-29T04:04:55.809Z,1001.26
2018-05-29T04:05:36.298Z,1001.23
2018-05-29T04:06:16.795Z,1001.27
2018-05-29T04:06:57.237Z,1001.23
2018-05-29T04:07:37.735Z,1001.26
2018-05-29T04:08:18.237Z,1001.27
2018-05-29T04:08:58.759Z,1001.21
2018-05-29T04:09:39.267Z,1001.31
2018-05-29T04:10:19.807Z,1001.29
2018-05-29T04:11:00.258Z,1001.23
2018-05-29T04:11:40.741Z,1001.24
2018-05-29T04:12:21.285Z,1001.3
2018-05-29T04:13:01.747Z,1001.28
2018-05-29T04:13:42.377Z,1001.26
2018-05-29T04:14:22.876Z,1001.32
2018-05-29T04:15:03.351Z,1001.28
2018-05-29T04:15:43.909Z,1001.29
2018-05-29T04:16:24.367Z,1001.31
2018-05-29T04:17:04.916Z,1001.3
2018-05-29T04:17:45.386Z,1001.27
2018-05-29T04:18:25.857Z,1001.28
2018-05-29T04:19:06.343Z,1001.28
2018-05-29T04:19:46.834Z,1001.28
2018-05-29T04:20:27.411Z,1001.28
2018-05-29T04:21:07.936Z,1001.27
2018-05-29T04:21:48.353Z,1001.26
2018-05-29T04:22:28.864Z,1001.21
2018-05-29T04:23:09.356Z,1001.22
2018-05-29T04:23:49.900Z,1001.21
2018-05-29T04:24:30.356Z,1001.18
2018-05-29T04:25:10.838Z,1001.2
2018-05-29T04:25:51.366Z,1001.15
2018-05-29T04:26:31.855Z,1001.19
2018-05-29T04:27:12.354Z,1001.18
2018-05-29T04:27:52.862Z,1001.16
2018-05-29T04:28:33.414Z,1001.19
2018-05-29T04:29:14.890Z,1001.18
2018-05-29T04:29:55.427Z,1001.2
2018-05-29T04:30:35.923Z,1001.16
2018-05-29T04:31:16.372Z,1001.21
2018-05-29T04:31:56.895Z,1001.25
2018-05-29T04:32:37.409Z,1001.21
2018-05-29T04:33:17.881Z,1001.27
2018-05-29T04:33:58.405Z,1001.25
2018-05-29T04:34:38.890Z,1001.29
2018-05-29T04:35:19.420Z,1001.27
2018-05-29T04:35:59.960Z,1001.3
2018-05-29T04:36:40.417Z,1001.28
2018-05-29T04:37:20.997Z,1001.3
2018-05-29T04:38:01.481Z,1001.24
2018-05-29T04:38:41.966Z,1001.29
2018-05-29T04:39:22.431Z,1001.26
2018-05-29T04:40:03.000Z,1001.28
2018-05-29T04:40:43.443Z,1001.27
2018-05-29T04:41:23.962Z,1001.29
2018-05-29T04:42:04.419Z,1001.29
2018-05-29T04:42:44.883Z,1001.33
2018-05-29T04:43:25.359Z,1001.31
2018-05-29T04:44:05.900Z,1001.32
2018-05-29T04:44:46.340Z,1001.3
2018-05-29T04:45:26.873Z,1001.31
2018-05-29T04:46:07.361Z,1001.3
2018-05-29T04:46:47.875Z,1001.32
2018-05-29T04:47:28.333Z,1001.33
2018-05-29T04:48:08.871Z,1001.34
2018-05-29T04:48:49.358Z,1001.27
2018-05-29T04:49:29.965Z,1001.35
2018-05-29T04:50:10.433Z,1001.29
2018-05-29T04:50:50.959Z,1001.36
2018-05-29T04:51:31.459Z,1001.32
2018-05-29T04:52:11.921Z,1001.32
2018-05-29T04:52:52.432Z,1001.37
2018-05-29T04:53:33.230Z,1001.38
2018-05-29T04:54:13.768Z,1001.4
2018-05-29T04:54:54.273Z,1001.37
2018-05-29T04:55:35.664Z,1001.39
2018-05-29T04:56:16.149Z,1001.35
2018-05-29T04:56:56.680Z,1001.34
2018-05-29T04:57:37.196Z,1001.33
2018-05-29T04:58:17.650Z,1001.32
2018-05-29T04:58:58.226Z,1001.28
2018-05-29T04:59:38.737Z,1001.29
2018-05-29T05:00:19.232Z,1001.25
2018-05-29T05:00:59.718Z,1001.22
2018-05-29T05:01:40.759Z,1001.18
2018-05-29T05:02:21.237Z,1001.16
2018-05-29T05:03:01.798Z,1001.15
2018-05-29T05:03:42.277Z,1001.13
2018-05-29T05:04:22.774Z,1001.18
2018-05-29T05:05:03.284Z,1001.18
2018-05-29T05:05:43.843Z,1001.13
2018-05-29T05:06:24.359Z,1001.11
2018-05-29T05:07:04.843Z,1001.06
2018-05-29T05:07:45.364Z,1001.13
2018-05-29T05:08:25.836Z,1001.12
2018-05-29T05:09:06.385Z,1001.14
2018-05-29T05:09:46.833Z,1001.14
2018-05-29T05:10:27.369Z,1001.2
2018-05-29T05:11:07.838Z,1001.19
2018-05-29T05:11:48.392Z,1001.13
2018-05-29T05:12:28.872Z,1001.22
2018-05-29T05:13:09.615Z,1001.19
2018-05-29T05:13:50.104Z,1001.2
2018-05-29T05:14:30.666Z,1001.28
2018-05-29T05:15:11.219Z,1001.22
2018-05-29T05:15:51.692Z,1001.23
2018-05-29T05:16:32.168Z,1001.26
2018-05-29T05:17:12.747Z,1001.22
2018-05-29T05:17:53.210Z,1001.21
2018-05-29T05:18:33.754Z,1001.23
2018-05-29T05:19:14.204Z,1001.22
2018-05-29T05:19:54.653Z,1001.24
2018-05-29T05:20:35.272Z,1001.22
2018-05-29T05:21:15.740Z,1001.24
2018-05-29T05:21:56.234Z,1001.25
2018-05-29T05:22:36.776Z,1001.29
2018-05-29T05:23:17.245Z,1001.29
2018-05-29T05:23:57.710Z,1001.27
2018-05-29T05:24:38.197Z,1001.35
2018-05-29T05:25:18.722Z,1001.31
2018-05-29T05:25:59.219Z,1001.29
2018-05-29T05:26:39.754Z,1001.31
2018-05-29T05:27:20.199Z,1001.3
2018-05-29T05:28:00.706Z,1001.3
2018-05-29T05:28:41.218Z,1001.26
2018-05-29T05:29:21.718Z,1001.27
2018-05-29T05:30:02.200Z,1001.26
2018-05-29T05:30:42.675Z,1001.34
2018-05-29T05:31:23.170Z,1001.25
2018-05-29T05:32:03.676Z,1001.22
2018-05-29T05:32:44.212Z,1001.24
2018-05-29T05:33:24.740Z,1001.3
2018-05-29T05:34:05.212Z,1001.29
2018-05-29T05:34:45.731Z,1001.28
2018-05-29T05:35:26.252Z,1001.3
2018-05-29T05:36:06.698Z,1001.34
2018-05-29T05:36:47.199Z,1001.35
2018-05-29T05:37:27.697Z,1001.41
2018-05-29T05:38:08.209Z,1001.37
2018-05-29T05:38:48.703Z,1001.39
2018-05-29T05:39:29.221Z,1001.41
2018-05-29T05:40:09.737Z,1001.36
2018-05-29T05:40:50.294Z,1001.41
2018-05-29T05:41:30.978Z,1001.33
2018-05-29T05:42:11.667Z,1001.42
2018-05-29T05:42:52.120Z,1001.41
2018-05-29T05:43:32.613Z,1001.34
2018-05-29T05:44:13.130Z,1001.4
2018-05-29T05:44:53.618Z,1001.36
2018-05-29T05:45:34.102Z,1001.44
2018-05-29T05:46:14.647Z,1001.45
2018-05-29T05:46:55.119Z,1001.43
2018-05-29T05:47:35.611Z,1001.46
2018-05-29T05:48:16.073Z,1001.43
2018-05-29T05:48:56.584Z,1001.51
2018-05-29T05:49:37.096Z,1001.48
2018-05-29T05:50:17.767Z,1001.43
2018-05-29T05:50:58.305Z,1001.41
2018-05-29T05:51:38.776Z,1001.45
2018-05-29T05:52:19.260Z,1001.39
2018-05-29T05:52:59.782Z,1001.49
2018-05-29T05:53:40.329Z,1001.43
2018-05-29T05:54:20.806Z,1001.42
2018-05-29T05:55:01.375Z,1001.41
2018-05-29T05:55:41.851Z,1001.39
2018-05-29T05:56:22.393Z,1001.39
2018-05-29T05:57:02.896Z,1001.41
2018-05-29T05:57:43.411Z,1001.5
2018-05-29T05:58:23.907Z,1001.5
2018-05-29T05:59:04.371Z,1001.43
2018-05-29T05:59:44.881Z,1001.49
2018-05-29T06:00:25.395Z,1001.51
2018-05-29T06:01:05.912Z,1001.45
2018-05-29T06:01:46.391Z,1001.54
2018-05-29T06:02:26.899Z,1001.52
2018-05-29T06:03:07.412Z,1001.49
2018-05-29T06:03:47.930Z,1001.52
2018-05-29T06:04:28.419Z,1001.52
2018-05-29T06:05:08.930Z,1001.54
2018-05-29T06:05:49.487Z,1001.53
2018-05-29T06:06:30.012Z,1001.5
2018-05-29T06:07:10.497Z,1001.57
2018-05-29T06:07:51.013Z,1001.56
2018-05-29T06:08:31.522Z,1001.54
2018-05-29T06:09:12.041Z,1001.44
2018-05-29T06:09:52.557Z,1001.5
2018-05-29T06:10:33.018Z,1001.52
2018-05-29T06:11:13.560Z,1001.48
2018-05-29T06:11:54.051Z,1001.48
2018-05-29T06:12:34.590Z,1001.52
2018-05-29T06:13:15.074Z,1001.46
2018-05-29T06:13:55.580Z,1001.47
2018-05-29T06:14:36.081Z,1001.47
2018-05-29T06:15:16.648Z,1001.49
2018-05-29T06:15:57.193Z,1001.49
2018-05-29T06:16:37.898Z,1001.48
2018-05-29T06:17:18.360Z,1001.55
2018-05-29T06:17:58.852Z,1001.58
2018-05-29T06:18:39.377Z,1001.59
2018-05-29T06:19:20.000Z,1001.56
2018-05-29T06:20:00.493Z,1001.53
2018-05-29T06:20:40.998Z,1001.58
2018-05-29T06:21:21.546Z,1001.56
2018-05-29T06:22:02.039Z,1001.58
2018-05-29T06:22:42.814Z,1001.48
2018-05-29T06:23:23.837Z,1001.55
2018-05-29T06:24:04.655Z,1001.55
2018-05-29T06:24:46.189Z,1001.54
2018-05-29T06:25:25.919Z,1001.54
2018-05-29T06:26:06.419Z,1001.57
2018-05-29T06:26:46.962Z,1001.48
2018-05-29T06:27:28.143Z,1001.6
2018-05-29T06:28:08.940Z,1001.56
2018-05-29T06:28:49.558Z,1001.54
2018-05-29T06:29:32.015Z,1001.57
2018-05-29T06:30:12.694Z,1001.55
2018-05-29T06:30:53.588Z,1001.59
2018-05-29T06:31:33.948Z,1001.58
2018-05-29T06:32:14.690Z,1001.61
2018-05-29T06:32:55.374Z,1001.61
2018-05-29T06:33:35.981Z,1001.63
2018-05-29T06:34:16.497Z,1001.62
2018-05-29T06:34:57.043Z,1001.59
2018-05-29T06:35:37.781Z,1001.62
2018-05-29T06:36:18.479Z,1001.61
2018-05-29T06:36:59.256Z,1001.62
2018-05-29T06:37:39.739Z,1001.62
2018-05-29T06:38:20.371Z,1001.63
2018-05-29T06:39:01.349Z,1001.68
2018-05-29T06:39:42.005Z,1001.66
2018-05-29T06:40:22.414Z,1001.66
2018-05-29T06:41:02.990Z,1001.67
2018-05-29T06:41:43.390Z,1001.66
2018-05-29T06:42:23.888Z,1001.67
2018-05-29T06:43:04.415Z,1001.7
2018-05-29T06:43:44.906Z,1001.71
2018-05-29T06:44:25.542Z,1001.67
2018-05-29T06:45:06.061Z,1001.71
2018-05-29T06:45:46.937Z,1001.71
2018-05-29T06:46:27.483Z,1001.73
2018-05-29T06:47:08.906Z,1001.7
2018-05-29T06:47:49.684Z,1001.66
2018-05-29T06:48:30.192Z,1001.7
2018-05-29T06:49:10.878Z,1001.71
2018-05-29T06:49:51.474Z,1001.72
2018-05-29T06:50:32.026Z,1001.74
2018-05-29T06:51:12.527Z,1001.73
2018-05-29T06:51:53.014Z,1001.71
2018-05-29T06:52:34.539Z,1001.72
2018-05-29T06:53:15.078Z,1001.75
2018-05-29T06:53:55.531Z,1001.69
2018-05-29T06:54:36.103Z,1001.76
2018-05-29T06:55:16.568Z,1001.77
2018-05-29T06:55:57.051Z,1001.81
2018-05-29T06:56:37.997Z,1001.81
2018-05-29T06:57:18.461Z,1001.84
2018-05-29T06:57:59.006Z,1001.82
2018-05-29T06:58:39.495Z,1001.83
2018-05-29T06:59:19.958Z,1001.81
2018-05-29T07:00:00.511Z,1001.8
2018-05-29T07:00:40.996Z,1001.83
2018-05-29T07:01:21.490Z,1001.81
2018-05-29T07:02:02.042Z,1001.81
2018-05-29T07:02:42.647Z,1001.83
2018-05-29T07:03:23.129Z,1001.84
2018-05-29T07:04:03.674Z,1001.79
2018-05-29T07:04:44.102Z,1001.85
2018-05-29T07:05:24.737Z,1001.78
2018-05-29T07:06:05.243Z,1001.85
2018-05-29T07:06:45.729Z,1001.81
2018-05-29T07:07:26.223Z,1001.77
2018-05-29T07:08:06.709Z,1001.81
2018-05-29T07:08:48.458Z,1001.76
2018-05-29T07:09:28.982Z,1001.79
2018-05-29T07:10:09.434Z,1001.76
2018-05-29T07:10:50.438Z,1001.79
2018-05-29T07:11:31.436Z,1001.77
2018-05-29T07:12:12.071Z,1001.72
2018-05-29T07:12:53.124Z,1001.74
2018-05-29T07:13:33.367Z,1001.79
2018-05-29T07:14:14.088Z,1001.75
2018-05-29T07:14:55.681Z,1001.76
2018-05-29T07:15:35.774Z,1001.76
2018-05-29T07:16:16.518Z,1001.71
2018-05-29T07:16:57.278Z,1001.75
2018-05-29T07:17:38.107Z,1001.72
2018-05-29T07:18:18.449Z,1001.72
2018-05-29T07:18:58.948Z,1001.7
2018-05-29T07:19:40.020Z,1001.73
2018-05-29T07:20:21.252Z,1001.7
2018-05-29T07:21:02.047Z,1001.7
2018-05-29T07:21:42.612Z,1001.72
2018-05-29T07:22:23.293Z,1001.72
2018-05-29T07:23:03.863Z,1001.67
2018-05-29T07:23:45.380Z,1001.7
2018-05-29T07:24:27.457Z,1001.64
2018-05-29T07:25:08.022Z,1001.63
2018-05-29T07:25:48.778Z,1001.56
2018-05-29T07:26:29.300Z,1001.61
2018-05-29T07:27:10.353Z,1001.58
2018-05-29T07:27:50.822Z,1001.55
2018-05-29T07:28:31.824Z,1001.51
2018-05-29T07:29:12.822Z,1001.53
2018-05-29T07:29:54.007Z,1001.54
2018-05-29T07:30:35.051Z,1001.5
2018-05-29T07:31:15.593Z,1001.53
2018-05-29T07:31:56.143Z,1001.54
2018-05-29T07:32:36.711Z,1001.61
2018-05-29T07:33:17.286Z,1001.58
2018-05-29T07:33:58.070Z,1001.58
2018-05-29T07:34:38.661Z,1001.62
2018-05-29T07:35:19.028Z,1001.66
2018-05-29T07:35:59.880Z,1001.62
2018-05-29T07:36:40.872Z,1001.62
2018-05-29T07:37:21.583Z,1001.6
2018-05-29T07:38:02.458Z,1001.64
2018-05-29T07:38:42.934Z,1001.65
2018-05-29T07:39:24.145Z,1001.64
2018-05-29T07:40:04.614Z,1001.61
2018-05-29T07:40:45.384Z,1001.61
2018-05-29T07:41:26.860Z,1001.61
2018-05-29T07:42:07.793Z,1001.59
2018-05-29T07:42:48.588Z,1001.66
2018-05-29T07:43:29.370Z,1001.64
2018-05-29T07:44:10.221Z,1001.63
2018-05-29T07:44:50.682Z,1001.63
2018-05-29T07:45:31.227Z,1001.62
2018-05-29T07:46:12.839Z,1001.64
2018-05-29T07:46:53.811Z,1001.54
2018-05-29T07:47:34.287Z,1001.6
2018-05-29T07:48:14.856Z,1001.62
2018-05-29T07:48:55.463Z,1001.63
2018-05-29T07:49:36.035Z,1001.6
2018-05-29T07:50:16.668Z,1001.59
2018-05-29T07:50:57.562Z,1001.59
2018-05-29T07:51:38.583Z,1001.63
2018-05-29T07:52:18.904Z,1001.61
2018-05-29T07:52:59.460Z,1001.64
2018-05-29T07:53:40.326Z,1001.64
2018-05-29T07:54:21.164Z,1001.63
2018-05-29T07:55:01.413Z,1001.66
2018-05-29T07:55:42.020Z,1001.61
2018-05-29T07:56:22.476Z,1001.58
2018-05-29T07:57:03.024Z,1001.58
2018-05-29T07:57:43.546Z,1001.64
2018-05-29T07:58:24.093Z,1001.55
2018-05-29T07:59:04.669Z,1001.48
2018-05-29T07:59:45.215Z,1001.54
2018-05-29T08:00:25.750Z,1001.58
2018-05-29T08:01:06.507Z,1001.54
2018-05-29T08:01:47.295Z,1001.55
2018-05-29T08:02:27.782Z,1001.52
2018-05-29T08:03:08.305Z,1001.61
2018-05-29T08:03:48.874Z,1001.56
2018-05-29T08:04:29.534Z,1001.58
2018-05-29T08:05:10.034Z,1001.58
2018-05-29T08:05:50.557Z,1001.58
2018-05-29T08:06:31.066Z,1001.61
2018-05-29T08:07:12.019Z,1001.57
2018-05-29T08:07:52.634Z,1001.6
2018-05-29T08:08:34.148Z,1001.61
2018-05-29T08:09:15.060Z,1001.56
2018-05-29T08:09:55.601Z,1001.6
2018-05-29T08:10:36.756Z,1001.59
2018-05-29T08:11:17.205Z,1001.66
2018-05-29T08:11:57.752Z,1001.59
2018-05-29T08:12:38.446Z,1001.54
2018-05-29T08:13:19.684Z,1001.56